sensor_id;sensor_type;location;lat;lon;timestamp;P1;durP1;ratioP1;P2;durP2;ratioP2
21360;SDS011;10839;43.206;23.550;2023-04-30T00:00:24;8.32;;;3.80;;
21360;SDS011;10839;43.206;23.550;2023-04-30T00:02:50;7.88;;;4.32;;
21360;SDS011;10839;43.206;23.550;2023-04-30T00:05:16;9.32;;;3.95;;
21360;SDS011;10839;43.206;23.550;2023-04-30T00:07:41;8.65;;;3.60;;
21360;SDS011;10839;43.206;23.550;2023-04-30T00:10:10;6.65;;;3.72;;
21360;SDS011;10839;43.206;23.550;2023-04-30T00:12:36;5.57;;;3.60;;
21360;SDS011;10839;43.206;23.550;2023-04-30T00:15:03;8.27;;;4.28;;
21360;SDS011;10839;43.206;23.550;2023-04-30T00:17:29;8.60;;;3.97;;
21360;SDS011;10839;43.206;23.550;2023-04-30T00:19:55;6.20;;;3.95;;
21360;SDS011;10839;43.206;23.550;2023-04-30T00:22:21;5.85;;;4.05;;
21360;SDS011;10839;43.206;23.550;2023-04-30T00:24:47;7.75;;;4.45;;
21360;SDS011;10839;43.206;23.550;2023-04-30T00:27:12;6.75;;;4.10;;
21360;SDS011;10839;43.206;23.550;2023-04-30T00:29:38;8.10;;;4.50;;
21360;SDS011;10839;43.206;23.550;2023-04-30T00:32:04;9.45;;;4.20;;
21360;SDS011;10839;43.206;23.550;2023-04-30T00:34:30;8.57;;;4.45;;
21360;SDS011;10839;43.206;23.550;2023-04-30T00:36:56;5.53;;;3.95;;
21360;SDS011;10839;43.206;23.550;2023-04-30T00:39:22;7.40;;;4.32;;
21360;SDS011;10839;43.206;23.550;2023-04-30T00:41:48;7.18;;;4.10;;
21360;SDS011;10839;43.206;23.550;2023-04-30T00:44:14;7.28;;;4.30;;
21360;SDS011;10839;43.206;23.550;2023-04-30T00:46:40;8.35;;;4.05;;
21360;SDS011;10839;43.206;23.550;2023-04-30T00:49:06;5.43;;;4.03;;
21360;SDS011;10839;43.206;23.550;2023-04-30T00:51:32;5.32;;;3.83;;
21360;SDS011;10839;43.206;23.550;2023-04-30T00:54:00;6.50;;;3.75;;
21360;SDS011;10839;43.206;23.550;2023-04-30T00:56:30;7.55;;;3.90;;
21360;SDS011;10839;43.206;23.550;2023-04-30T00:58:56;7.07;;;3.70;;
21360;SDS011;10839;43.206;23.550;2023-04-30T01:01:26;7.97;;;3.67;;
21360;SDS011;10839;43.206;23.550;2023-04-30T01:03:56;7.63;;;3.72;;
21360;SDS011;10839;43.206;23.550;2023-04-30T01:06:22;6.78;;;3.67;;
21360;SDS011;10839;43.206;23.550;2023-04-30T01:08:49;6.55;;;3.83;;
21360;SDS011;10839;43.206;23.550;2023-04-30T01:16:35;5.85;;;3.65;;
21360;SDS011;10839;43.206;23.550;2023-04-30T01:25:05;5.70;;;3.65;;
21360;SDS011;10839;43.206;23.550;2023-04-30T01:27:54;5.88;;;3.50;;
21360;SDS011;10839;43.206;23.550;2023-04-30T01:30:33;7.10;;;3.50;;
21360;SDS011;10839;43.206;23.550;2023-04-30T01:33:01;4.38;;;3.30;;
21360;SDS011;10839;43.206;23.550;2023-04-30T01:41:09;6.43;;;3.90;;
21360;SDS011;10839;43.206;23.550;2023-04-30T01:46:29;9.05;;;4.13;;
21360;SDS011;10839;43.206;23.550;2023-04-30T01:52:08;6.20;;;3.65;;
21360;SDS011;10839;43.206;23.550;2023-04-30T01:54:52;7.97;;;4.13;;
21360;SDS011;10839;43.206;23.550;2023-04-30T01:57:28;5.68;;;3.45;;
21360;SDS011;10839;43.206;23.550;2023-04-30T01:59:58;5.88;;;3.40;;
21360;SDS011;10839;43.206;23.550;2023-04-30T02:02:25;7.10;;;3.42;;
21360;SDS011;10839;43.206;23.550;2023-04-30T02:04:51;4.63;;;3.63;;
21360;SDS011;10839;43.206;23.550;2023-04-30T02:07:20;8.27;;;4.00;;
21360;SDS011;10839;43.206;23.550;2023-04-30T02:10:03;5.95;;;3.40;;
21360;SDS011;10839;43.206;23.550;2023-04-30T02:12:30;7.95;;;3.83;;
21360;SDS011;10839;43.206;23.550;2023-04-30T02:14:56;6.90;;;4.10;;
21360;SDS011;10839;43.206;23.550;2023-04-30T02:17:23;6.05;;;4.18;;
21360;SDS011;10839;43.206;23.550;2023-04-30T02:19:49;5.68;;;3.80;;
21360;SDS011;10839;43.206;23.550;2023-04-30T02:22:14;7.40;;;4.38;;
21360;SDS011;10839;43.206;23.550;2023-04-30T02:24:40;7.35;;;4.03;;
21360;SDS011;10839;43.206;23.550;2023-04-30T02:27:06;5.03;;;4.07;;
21360;SDS011;10839;43.206;23.550;2023-04-30T02:29:32;8.52;;;4.10;;
21360;SDS011;10839;43.206;23.550;2023-04-30T02:31:58;6.20;;;3.58;;
21360;SDS011;10839;43.206;23.550;2023-04-30T02:34:24;5.72;;;3.15;;
21360;SDS011;10839;43.206;23.550;2023-04-30T02:36:50;5.50;;;3.65;;
21360;SDS011;10839;43.206;23.550;2023-04-30T02:39:16;9.48;;;3.88;;
21360;SDS011;10839;43.206;23.550;2023-04-30T02:41:42;4.80;;;3.42;;
21360;SDS011;10839;43.206;23.550;2023-04-30T02:44:07;6.03;;;3.42;;
21360;SDS011;10839;43.206;23.550;2023-04-30T02:46:33;5.28;;;3.47;;
21360;SDS011;10839;43.206;23.550;2023-04-30T02:49:00;9.52;;;4.32;;
21360;SDS011;10839;43.206;23.550;2023-04-30T02:51:25;5.45;;;3.83;;
21360;SDS011;10839;43.206;23.550;2023-04-30T02:53:52;6.43;;;3.55;;
21360;SDS011;10839;43.206;23.550;2023-04-30T02:56:18;6.60;;;4.03;;
21360;SDS011;10839;43.206;23.550;2023-04-30T02:58:44;10.68;;;4.07;;
21360;SDS011;10839;43.206;23.550;2023-04-30T03:01:10;5.85;;;3.50;;
21360;SDS011;10839;43.206;23.550;2023-04-30T03:03:36;6.32;;;3.55;;
21360;SDS011;10839;43.206;23.550;2023-04-30T03:06:03;4.55;;;3.38;;
21360;SDS011;10839;43.206;23.550;2023-04-30T03:08:29;7.15;;;3.90;;
21360;SDS011;10839;43.206;23.550;2023-04-30T03:10:55;7.45;;;3.75;;
21360;SDS011;10839;43.206;23.550;2023-04-30T03:13:21;5.57;;;3.83;;
21360;SDS011;10839;43.206;23.550;2023-04-30T03:15:59;7.68;;;4.05;;
21360;SDS011;10839;43.206;23.550;2023-04-30T03:18:27;7.13;;;4.00;;
21360;SDS011;10839;43.206;23.550;2023-04-30T03:20:53;6.43;;;3.90;;
21360;SDS011;10839;43.206;23.550;2023-04-30T03:23:19;13.15;;;4.18;;
21360;SDS011;10839;43.206;23.550;2023-04-30T03:25:45;8.05;;;3.50;;
21360;SDS011;10839;43.206;23.550;2023-04-30T03:28:12;5.57;;;3.63;;
21360;SDS011;10839;43.206;23.550;2023-04-30T03:30:38;5.88;;;3.70;;
21360;SDS011;10839;43.206;23.550;2023-04-30T03:33:04;6.88;;;3.65;;
21360;SDS011;10839;43.206;23.550;2023-04-30T03:35:31;6.53;;;3.70;;
21360;SDS011;10839;43.206;23.550;2023-04-30T03:37:58;8.32;;;4.32;;
21360;SDS011;10839;43.206;23.550;2023-04-30T03:40:25;7.18;;;4.30;;
21360;SDS011;10839;43.206;23.550;2023-04-30T03:42:51;10.40;;;4.40;;
21360;SDS011;10839;43.206;23.550;2023-04-30T03:45:17;10.15;;;5.40;;
21360;SDS011;10839;43.206;23.550;2023-04-30T03:47:43;8.80;;;4.78;;
21360;SDS011;10839;43.206;23.550;2023-04-30T03:50:09;8.90;;;4.60;;
21360;SDS011;10839;43.206;23.550;2023-04-30T03:52:36;6.90;;;4.45;;
21360;SDS011;10839;43.206;23.550;2023-04-30T03:55:03;8.23;;;4.38;;
21360;SDS011;10839;43.206;23.550;2023-04-30T03:57:29;6.50;;;3.53;;
21360;SDS011;10839;43.206;23.550;2023-04-30T03:59:56;6.10;;;3.60;;
21360;SDS011;10839;43.206;23.550;2023-04-30T04:02:22;7.82;;;3.30;;
21360;SDS011;10839;43.206;23.550;2023-04-30T04:04:48;5.63;;;3.20;;
21360;SDS011;10839;43.206;23.550;2023-04-30T04:07:15;6.15;;;3.50;;
21360;SDS011;10839;43.206;23.550;2023-04-30T04:09:42;6.45;;;4.18;;
21360;SDS011;10839;43.206;23.550;2023-04-30T04:12:08;4.78;;;3.03;;
21360;SDS011;10839;43.206;23.550;2023-04-30T04:14:35;3.28;;;2.50;;
21360;SDS011;10839;43.206;23.550;2023-04-30T04:17:01;4.93;;;2.78;;
21360;SDS011;10839;43.206;23.550;2023-04-30T04:19:30;6.25;;;2.75;;
21360;SDS011;10839;43.206;23.550;2023-04-30T04:21:56;7.95;;;4.18;;
21360;SDS011;10839;43.206;23.550;2023-04-30T04:24:23;8.95;;;6.30;;
21360;SDS011;10839;43.206;23.550;2023-04-30T04:26:50;9.93;;;6.93;;
21360;SDS011;10839;43.206;23.550;2023-04-30T04:29:16;7.30;;;5.20;;
21360;SDS011;10839;43.206;23.550;2023-04-30T04:31:46;11.05;;;6.25;;
21360;SDS011;10839;43.206;23.550;2023-04-30T04:34:13;9.70;;;6.65;;
21360;SDS011;10839;43.206;23.550;2023-04-30T04:36:39;9.35;;;7.32;;
21360;SDS011;10839;43.206;23.550;2023-04-30T04:39:06;11.63;;;7.57;;
21360;SDS011;10839;43.206;23.550;2023-04-30T04:41:32;11.77;;;7.93;;
21360;SDS011;10839;43.206;23.550;2023-04-30T04:44:01;10.32;;;7.70;;
21360;SDS011;10839;43.206;23.550;2023-04-30T04:46:29;12.68;;;8.43;;
21360;SDS011;10839;43.206;23.550;2023-04-30T04:48:56;11.25;;;8.38;;
21360;SDS011;10839;43.206;23.550;2023-04-30T04:51:23;14.15;;;9.25;;
21360;SDS011;10839;43.206;23.550;2023-04-30T04:53:49;14.00;;;8.98;;
21360;SDS011;10839;43.206;23.550;2023-04-30T04:56:15;38.42;;;22.10;;
21360;SDS011;10839;43.206;23.550;2023-04-30T04:58:41;12.68;;;9.32;;
21360;SDS011;10839;43.206;23.550;2023-04-30T05:01:07;15.90;;;9.07;;
21360;SDS011;10839;43.206;23.550;2023-04-30T05:03:33;13.43;;;8.77;;
21360;SDS011;10839;43.206;23.550;2023-04-30T05:06:03;18.17;;;8.85;;
21360;SDS011;10839;43.206;23.550;2023-04-30T05:08:30;12.07;;;5.30;;
21360;SDS011;10839;43.206;23.550;2023-04-30T05:10:56;10.25;;;5.30;;
21360;SDS011;10839;43.206;23.550;2023-04-30T05:13:22;10.70;;;4.78;;
21360;SDS011;10839;43.206;23.550;2023-04-30T05:15:51;8.10;;;4.63;;
21360;SDS011;10839;43.206;23.550;2023-04-30T05:18:18;7.88;;;4.43;;
21360;SDS011;10839;43.206;23.550;2023-04-30T05:20:44;6.68;;;4.60;;
21360;SDS011;10839;43.206;23.550;2023-04-30T05:23:10;7.82;;;4.43;;
21360;SDS011;10839;43.206;23.550;2023-04-30T05:25:37;8.18;;;4.80;;
21360;SDS011;10839;43.206;23.550;2023-04-30T05:28:03;8.38;;;4.32;;
21360;SDS011;10839;43.206;23.550;2023-04-30T05:30:29;7.68;;;5.05;;
21360;SDS011;10839;43.206;23.550;2023-04-30T05:32:56;9.93;;;4.68;;
21360;SDS011;10839;43.206;23.550;2023-04-30T05:35:22;12.35;;;6.00;;
21360;SDS011;10839;43.206;23.550;2023-04-30T05:37:48;14.25;;;8.95;;
21360;SDS011;10839;43.206;23.550;2023-04-30T05:40:14;14.48;;;10.02;;
21360;SDS011;10839;43.206;23.550;2023-04-30T05:42:41;21.50;;;12.05;;
21360;SDS011;10839;43.206;23.550;2023-04-30T05:45:08;21.35;;;12.25;;
21360;SDS011;10839;43.206;23.550;2023-04-30T05:47:36;16.67;;;9.95;;
21360;SDS011;10839;43.206;23.550;2023-04-30T05:50:02;14.30;;;8.10;;
21360;SDS011;10839;43.206;23.550;2023-04-30T05:52:28;11.52;;;7.55;;
21360;SDS011;10839;43.206;23.550;2023-04-30T05:54:55;13.50;;;7.95;;
21360;SDS011;10839;43.206;23.550;2023-04-30T05:57:21;10.45;;;7.43;;
21360;SDS011;10839;43.206;23.550;2023-04-30T05:59:46;10.93;;;7.63;;
21360;SDS011;10839;43.206;23.550;2023-04-30T06:02:12;14.02;;;7.85;;
21360;SDS011;10839;43.206;23.550;2023-04-30T06:04:38;14.40;;;7.90;;
21360;SDS011;10839;43.206;23.550;2023-04-30T06:07:04;15.85;;;8.60;;
21360;SDS011;10839;43.206;23.550;2023-04-30T06:09:30;12.10;;;7.82;;
21360;SDS011;10839;43.206;23.550;2023-04-30T06:11:56;12.05;;;7.88;;
21360;SDS011;10839;43.206;23.550;2023-04-30T06:14:22;13.05;;;7.85;;
21360;SDS011;10839;43.206;23.550;2023-04-30T06:16:49;12.95;;;8.43;;
21360;SDS011;10839;43.206;23.550;2023-04-30T06:19:15;13.82;;;7.35;;
21360;SDS011;10839;43.206;23.550;2023-04-30T06:21:41;12.40;;;7.28;;
21360;SDS011;10839;43.206;23.550;2023-04-30T06:24:10;10.50;;;7.82;;
21360;SDS011;10839;43.206;23.550;2023-04-30T06:26:36;17.20;;;7.78;;
21360;SDS011;10839;43.206;23.550;2023-04-30T06:29:01;9.68;;;6.93;;
21360;SDS011;10839;43.206;23.550;2023-04-30T06:31:27;12.82;;;8.13;;
21360;SDS011;10839;43.206;23.550;2023-04-30T06:33:53;11.00;;;6.95;;
21360;SDS011;10839;43.206;23.550;2023-04-30T06:36:19;10.93;;;6.20;;
21360;SDS011;10839;43.206;23.550;2023-04-30T06:38:45;12.75;;;8.13;;
21360;SDS011;10839;43.206;23.550;2023-04-30T06:41:11;13.68;;;6.15;;
21360;SDS011;10839;43.206;23.550;2023-04-30T06:43:38;10.38;;;6.30;;
21360;SDS011;10839;43.206;23.550;2023-04-30T06:46:04;7.20;;;5.13;;
21360;SDS011;10839;43.206;23.550;2023-04-30T06:48:31;13.60;;;7.85;;
21360;SDS011;10839;43.206;23.550;2023-04-30T06:50:57;11.27;;;6.18;;
21360;SDS011;10839;43.206;23.550;2023-04-30T06:53:23;9.25;;;6.55;;
21360;SDS011;10839;43.206;23.550;2023-04-30T06:55:49;8.25;;;6.05;;
21360;SDS011;10839;43.206;23.550;2023-04-30T06:58:15;8.75;;;5.80;;
21360;SDS011;10839;43.206;23.550;2023-04-30T07:00:43;7.78;;;5.35;;
21360;SDS011;10839;43.206;23.550;2023-04-30T07:03:08;11.95;;;6.95;;
21360;SDS011;10839;43.206;23.550;2023-04-30T07:05:34;17.52;;;9.45;;
21360;SDS011;10839;43.206;23.550;2023-04-30T07:08:00;40.55;;;24.10;;
21360;SDS011;10839;43.206;23.550;2023-04-30T07:10:28;13.50;;;8.50;;
21360;SDS011;10839;43.206;23.550;2023-04-30T07:12:54;12.73;;;6.32;;
21360;SDS011;10839;43.206;23.550;2023-04-30T07:15:20;17.15;;;5.93;;
21360;SDS011;10839;43.206;23.550;2023-04-30T07:17:46;9.90;;;4.60;;
21360;SDS011;10839;43.206;23.550;2023-04-30T07:20:12;61.78;;;9.02;;
21360;SDS011;10839;43.206;23.550;2023-04-30T07:22:41;47.10;;;8.73;;
21360;SDS011;10839;43.206;23.550;2023-04-30T07:25:11;25.50;;;6.43;;
21360;SDS011;10839;43.206;23.550;2023-04-30T07:27:38;21.52;;;14.38;;
21360;SDS011;10839;43.206;23.550;2023-04-30T07:30:05;53.20;;;34.00;;
21360;SDS011;10839;43.206;23.550;2023-04-30T07:32:33;18.85;;;11.50;;
21360;SDS011;10839;43.206;23.550;2023-04-30T07:34:59;65.28;;;11.02;;
21360;SDS011;10839;43.206;23.550;2023-04-30T07:37:25;60.17;;;10.23;;
21360;SDS011;10839;43.206;23.550;2023-04-30T07:39:51;91.97;;;13.57;;
21360;SDS011;10839;43.206;23.550;2023-04-30T07:42:16;10.63;;;4.55;;
21360;SDS011;10839;43.206;23.550;2023-04-30T07:44:42;38.03;;;9.38;;
21360;SDS011;10839;43.206;23.550;2023-04-30T07:47:08;47.05;;;8.43;;
21360;SDS011;10839;43.206;23.550;2023-04-30T07:49:34;39.25;;;21.45;;
21360;SDS011;10839;43.206;23.550;2023-04-30T07:52:00;10.73;;;5.72;;
21360;SDS011;10839;43.206;23.550;2023-04-30T07:54:26;12.30;;;5.90;;
21360;SDS011;10839;43.206;23.550;2023-04-30T07:56:52;7.38;;;4.97;;
21360;SDS011;10839;43.206;23.550;2023-04-30T07:59:18;8.00;;;3.70;;
21360;SDS011;10839;43.206;23.550;2023-04-30T08:01:45;10.63;;;4.68;;
21360;SDS011;10839;43.206;23.550;2023-04-30T08:04:11;8.32;;;4.97;;
21360;SDS011;10839;43.206;23.550;2023-04-30T08:06:37;8.32;;;4.10;;
21360;SDS011;10839;43.206;23.550;2023-04-30T08:09:03;10.35;;;7.57;;
21360;SDS011;10839;43.206;23.550;2023-04-30T08:11:29;19.88;;;11.60;;
21360;SDS011;10839;43.206;23.550;2023-04-30T08:13:54;12.30;;;9.05;;
21360;SDS011;10839;43.206;23.550;2023-04-30T08:16:20;19.00;;;12.07;;
21360;SDS011;10839;43.206;23.550;2023-04-30T08:18:48;14.48;;;9.77;;
21360;SDS011;10839;43.206;23.550;2023-04-30T08:21:14;8.18;;;3.83;;
21360;SDS011;10839;43.206;23.550;2023-04-30T08:23:42;4.53;;;2.63;;
21360;SDS011;10839;43.206;23.550;2023-04-30T08:26:08;3.08;;;2.15;;
21360;SDS011;10839;43.206;23.550;2023-04-30T08:28:34;5.78;;;2.53;;
21360;SDS011;10839;43.206;23.550;2023-04-30T08:31:00;3.92;;;2.17;;
21360;SDS011;10839;43.206;23.550;2023-04-30T08:33:26;4.88;;;2.35;;
21360;SDS011;10839;43.206;23.550;2023-04-30T08:35:52;7.30;;;2.78;;
21360;SDS011;10839;43.206;23.550;2023-04-30T08:38:18;5.30;;;3.25;;
21360;SDS011;10839;43.206;23.550;2023-04-30T08:40:46;4.13;;;2.25;;
21360;SDS011;10839;43.206;23.550;2023-04-30T08:43:18;4.20;;;1.98;;
21360;SDS011;10839;43.206;23.550;2023-04-30T08:45:44;5.35;;;2.67;;
21360;SDS011;10839;43.206;23.550;2023-04-30T08:48:11;4.18;;;2.30;;
21360;SDS011;10839;43.206;23.550;2023-04-30T08:50:42;3.85;;;2.22;;
21360;SDS011;10839;43.206;23.550;2023-04-30T08:53:08;6.38;;;2.13;;
21360;SDS011;10839;43.206;23.550;2023-04-30T08:55:35;3.45;;;2.30;;
21360;SDS011;10839;43.206;23.550;2023-04-30T08:58:04;5.00;;;2.45;;
21360;SDS011;10839;43.206;23.550;2023-04-30T09:00:31;4.65;;;2.13;;
21360;SDS011;10839;43.206;23.550;2023-04-30T09:02:57;3.83;;;2.55;;
21360;SDS011;10839;43.206;23.550;2023-04-30T09:05:25;4.38;;;2.47;;
21360;SDS011;10839;43.206;23.550;2023-04-30T09:07:51;3.92;;;2.60;;
21360;SDS011;10839;43.206;23.550;2023-04-30T09:10:20;5.55;;;3.05;;
21360;SDS011;10839;43.206;23.550;2023-04-30T09:13:08;2.80;;;2.50;;
21360;SDS011;10839;43.206;23.550;2023-04-30T09:15:34;3.28;;;2.42;;
21360;SDS011;10839;43.206;23.550;2023-04-30T09:18:15;4.03;;;3.15;;
21360;SDS011;10839;43.206;23.550;2023-04-30T09:20:59;5.28;;;2.85;;
21360;SDS011;10839;43.206;23.550;2023-04-30T09:23:27;4.10;;;2.63;;
21360;SDS011;10839;43.206;23.550;2023-04-30T09:25:54;5.25;;;2.60;;
21360;SDS011;10839;43.206;23.550;2023-04-30T09:28:21;7.32;;;2.47;;
21360;SDS011;10839;43.206;23.550;2023-04-30T09:30:50;6.13;;;3.00;;
21360;SDS011;10839;43.206;23.550;2023-04-30T09:33:16;5.90;;;2.78;;
21360;SDS011;10839;43.206;23.550;2023-04-30T09:35:42;10.82;;;2.95;;
21360;SDS011;10839;43.206;23.550;2023-04-30T09:38:25;5.35;;;3.10;;
21360;SDS011;10839;43.206;23.550;2023-04-30T09:40:52;3.92;;;2.35;;
21360;SDS011;10839;43.206;23.550;2023-04-30T09:43:18;3.22;;;2.45;;
21360;SDS011;10839;43.206;23.550;2023-04-30T09:45:47;4.90;;;2.42;;
21360;SDS011;10839;43.206;23.550;2023-04-30T09:48:20;4.53;;;2.53;;
21360;SDS011;10839;43.206;23.550;2023-04-30T09:50:48;4.45;;;2.20;;
21360;SDS011;10839;43.206;23.550;2023-04-30T09:53:15;3.75;;;2.55;;
21360;SDS011;10839;43.206;23.550;2023-04-30T09:55:47;3.08;;;2.20;;
21360;SDS011;10839;43.206;23.550;2023-04-30T09:58:15;4.60;;;2.45;;
21360;SDS011;10839;43.206;23.550;2023-04-30T10:00:43;4.72;;;2.35;;
21360;SDS011;10839;43.206;23.550;2023-04-30T10:03:12;4.75;;;1.70;;
21360;SDS011;10839;43.206;23.550;2023-04-30T10:05:42;2.38;;;1.98;;
21360;SDS011;10839;43.206;23.550;2023-04-30T10:11:08;2.90;;;1.98;;
21360;SDS011;10839;43.206;23.550;2023-04-30T10:19:19;2.10;;;1.60;;
21360;SDS011;10839;43.206;23.550;2023-04-30T10:21:48;2.47;;;1.63;;
21360;SDS011;10839;43.206;23.550;2023-04-30T10:24:14;1.55;;;1.45;;
21360;SDS011;10839;43.206;23.550;2023-04-30T10:26:44;3.47;;;1.50;;
21360;SDS011;10839;43.206;23.550;2023-04-30T10:29:12;2.70;;;1.92;;
21360;SDS011;10839;43.206;23.550;2023-04-30T10:31:40;5.60;;;2.03;;
21360;SDS011;10839;43.206;23.550;2023-04-30T10:34:13;3.97;;;1.90;;
21360;SDS011;10839;43.206;23.550;2023-04-30T10:36:45;2.95;;;2.28;;
21360;SDS011;10839;43.206;23.550;2023-04-30T10:39:20;4.95;;;2.30;;
21360;SDS011;10839;43.206;23.550;2023-04-30T10:41:48;3.47;;;2.13;;
21360;SDS011;10839;43.206;23.550;2023-04-30T10:44:14;3.40;;;1.92;;
21360;SDS011;10839;43.206;23.550;2023-04-30T10:46:47;2.70;;;1.40;;
21360;SDS011;10839;43.206;23.550;2023-04-30T10:49:13;5.82;;;1.55;;
21360;SDS011;10839;43.206;23.550;2023-04-30T10:51:49;1.80;;;1.25;;
21360;SDS011;10839;43.206;23.550;2023-04-30T10:54:21;1.90;;;1.50;;
21360;SDS011;10839;43.206;23.550;2023-04-30T10:56:50;1.95;;;1.60;;
21360;SDS011;10839;43.206;23.550;2023-04-30T10:59:17;2.47;;;1.92;;
21360;SDS011;10839;43.206;23.550;2023-04-30T11:01:53;3.85;;;1.88;;
21360;SDS011;10839;43.206;23.550;2023-04-30T11:04:21;4.32;;;1.65;;
21360;SDS011;10839;43.206;23.550;2023-04-30T11:09:35;2.50;;;1.77;;
21360;SDS011;10839;43.206;23.550;2023-04-30T11:12:09;11.70;;;3.10;;
21360;SDS011;10839;43.206;23.550;2023-04-30T11:14:38;5.07;;;2.35;;
21360;SDS011;10839;43.206;23.550;2023-04-30T11:17:06;4.25;;;2.20;;
21360;SDS011;10839;43.206;23.550;2023-04-30T11:19:33;3.42;;;2.08;;
21360;SDS011;10839;43.206;23.550;2023-04-30T11:27:25;2.90;;;2.08;;
21360;SDS011;10839;43.206;23.550;2023-04-30T11:29:53;3.45;;;2.20;;
21360;SDS011;10839;43.206;23.550;2023-04-30T11:32:20;3.50;;;2.35;;
21360;SDS011;10839;43.206;23.550;2023-04-30T11:34:48;3.10;;;2.00;;
21360;SDS011;10839;43.206;23.550;2023-04-30T11:37:18;4.90;;;2.28;;
21360;SDS011;10839;43.206;23.550;2023-04-30T11:39:46;5.40;;;2.35;;
21360;SDS011;10839;43.206;23.550;2023-04-30T11:42:19;3.85;;;2.33;;
21360;SDS011;10839;43.206;23.550;2023-04-30T11:44:45;4.55;;;2.50;;
21360;SDS011;10839;43.206;23.550;2023-04-30T11:47:12;6.30;;;2.63;;
21360;SDS011;10839;43.206;23.550;2023-04-30T11:49:39;4.07;;;2.67;;
21360;SDS011;10839;43.206;23.550;2023-04-30T11:52:05;3.08;;;2.33;;
21360;SDS011;10839;43.206;23.550;2023-04-30T11:54:34;4.18;;;2.08;;
21360;SDS011;10839;43.206;23.550;2023-04-30T11:57:02;3.50;;;2.00;;
21360;SDS011;10839;43.206;23.550;2023-04-30T11:59:29;5.75;;;1.65;;
21360;SDS011;10839;43.206;23.550;2023-04-30T12:01:56;3.25;;;1.90;;
21360;SDS011;10839;43.206;23.550;2023-04-30T12:04:22;2.05;;;1.85;;
21360;SDS011;10839;43.206;23.550;2023-04-30T12:06:49;4.63;;;1.80;;
21360;SDS011;10839;43.206;23.550;2023-04-30T12:09:15;3.75;;;1.90;;
21360;SDS011;10839;43.206;23.550;2023-04-30T12:11:41;5.50;;;2.10;;
21360;SDS011;10839;43.206;23.550;2023-04-30T12:14:08;2.75;;;1.95;;
21360;SDS011;10839;43.206;23.550;2023-04-30T12:19:14;2.70;;;2.00;;
21360;SDS011;10839;43.206;23.550;2023-04-30T12:21:41;3.97;;;1.70;;
21360;SDS011;10839;43.206;23.550;2023-04-30T12:24:16;2.97;;;2.03;;
21360;SDS011;10839;43.206;23.550;2023-04-30T12:26:43;2.60;;;1.90;;
21360;SDS011;10839;43.206;23.550;2023-04-30T12:29:11;2.22;;;1.73;;
21360;SDS011;10839;43.206;23.550;2023-04-30T12:31:41;3.03;;;2.35;;
21360;SDS011;10839;43.206;23.550;2023-04-30T12:34:09;6.47;;;1.50;;
21360;SDS011;10839;43.206;23.550;2023-04-30T12:36:37;2.95;;;2.13;;
21360;SDS011;10839;43.206;23.550;2023-04-30T12:39:10;4.22;;;2.28;;
21360;SDS011;10839;43.206;23.550;2023-04-30T12:44:22;4.50;;;2.70;;
21360;SDS011;10839;43.206;23.550;2023-04-30T12:46:50;4.60;;;2.78;;
21360;SDS011;10839;43.206;23.550;2023-04-30T12:49:25;5.65;;;2.60;;
21360;SDS011;10839;43.206;23.550;2023-04-30T12:51:58;3.63;;;2.78;;
21360;SDS011;10839;43.206;23.550;2023-04-30T12:54:25;2.88;;;1.90;;
21360;SDS011;10839;43.206;23.550;2023-04-30T12:57:05;3.20;;;1.70;;
21360;SDS011;10839;43.206;23.550;2023-04-30T12:59:38;3.40;;;2.80;;
21360;SDS011;10839;43.206;23.550;2023-04-30T13:04:32;2.60;;;1.95;;
21360;SDS011;10839;43.206;23.550;2023-04-30T13:07:00;5.15;;;2.25;;
21360;SDS011;10839;43.206;23.550;2023-04-30T13:09:27;4.20;;;1.75;;
21360;SDS011;10839;43.206;23.550;2023-04-30T13:11:53;3.00;;;1.63;;
21360;SDS011;10839;43.206;23.550;2023-04-30T13:14:19;6.25;;;2.50;;
21360;SDS011;10839;43.206;23.550;2023-04-30T13:16:45;3.95;;;2.22;;
21360;SDS011;10839;43.206;23.550;2023-04-30T13:19:12;4.82;;;2.22;;
21360;SDS011;10839;43.206;23.550;2023-04-30T13:21:37;3.25;;;2.33;;
21360;SDS011;10839;43.206;23.550;2023-04-30T13:24:03;2.10;;;1.60;;
21360;SDS011;10839;43.206;23.550;2023-04-30T13:26:29;1.80;;;1.65;;
21360;SDS011;10839;43.206;23.550;2023-04-30T13:28:55;3.85;;;1.65;;
21360;SDS011;10839;43.206;23.550;2023-04-30T13:31:21;3.47;;;1.40;;
21360;SDS011;10839;43.206;23.550;2023-04-30T13:33:47;2.10;;;1.50;;
21360;SDS011;10839;43.206;23.550;2023-04-30T13:36:14;2.10;;;1.45;;
21360;SDS011;10839;43.206;23.550;2023-04-30T13:38:40;4.95;;;1.73;;
21360;SDS011;10839;43.206;23.550;2023-04-30T13:41:06;4.32;;;1.85;;
21360;SDS011;10839;43.206;23.550;2023-04-30T13:43:32;2.95;;;1.83;;
21360;SDS011;10839;43.206;23.550;2023-04-30T13:45:58;3.38;;;1.80;;
21360;SDS011;10839;43.206;23.550;2023-04-30T13:48:23;2.20;;;1.70;;
21360;SDS011;10839;43.206;23.550;2023-04-30T13:50:53;3.58;;;1.95;;
21360;SDS011;10839;43.206;23.550;2023-04-30T13:53:18;1.73;;;1.60;;
21360;SDS011;10839;43.206;23.550;2023-04-30T13:55:44;2.55;;;1.50;;
21360;SDS011;10839;43.206;23.550;2023-04-30T13:58:11;3.33;;;1.67;;
21360;SDS011;10839;43.206;23.550;2023-04-30T14:00:37;4.13;;;1.60;;
21360;SDS011;10839;43.206;23.550;2023-04-30T14:03:03;2.95;;;2.03;;
21360;SDS011;10839;43.206;23.550;2023-04-30T14:05:29;2.10;;;1.50;;
21360;SDS011;10839;43.206;23.550;2023-04-30T14:07:55;2.47;;;1.40;;
21360;SDS011;10839;43.206;23.550;2023-04-30T14:10:20;2.22;;;1.77;;
21360;SDS011;10839;43.206;23.550;2023-04-30T14:12:46;1.95;;;1.73;;
21360;SDS011;10839;43.206;23.550;2023-04-30T14:15:13;4.05;;;2.70;;
21360;SDS011;10839;43.206;23.550;2023-04-30T14:17:39;6.88;;;5.38;;
21360;SDS011;10839;43.206;23.550;2023-04-30T14:20:04;5.82;;;4.38;;
21360;SDS011;10839;43.206;23.550;2023-04-30T14:22:31;4.75;;;2.30;;
21360;SDS011;10839;43.206;23.550;2023-04-30T14:24:58;3.67;;;2.20;;
21360;SDS011;10839;43.206;23.550;2023-04-30T14:27:24;4.63;;;1.92;;
21360;SDS011;10839;43.206;23.550;2023-04-30T14:29:50;5.25;;;1.90;;
21360;SDS011;10839;43.206;23.550;2023-04-30T14:32:16;2.10;;;1.48;;
21360;SDS011;10839;43.206;23.550;2023-04-30T14:34:42;3.67;;;1.45;;
21360;SDS011;10839;43.206;23.550;2023-04-30T14:37:09;3.83;;;1.63;;
21360;SDS011;10839;43.206;23.550;2023-04-30T14:39:35;2.75;;;1.98;;
21360;SDS011;10839;43.206;23.550;2023-04-30T14:42:00;2.30;;;2.00;;
21360;SDS011;10839;43.206;23.550;2023-04-30T14:44:27;3.70;;;1.60;;
21360;SDS011;10839;43.206;23.550;2023-04-30T14:46:53;1.50;;;1.33;;
21360;SDS011;10839;43.206;23.550;2023-04-30T14:49:19;3.97;;;1.60;;
21360;SDS011;10839;43.206;23.550;2023-04-30T14:51:45;1.63;;;1.40;;
21360;SDS011;10839;43.206;23.550;2023-04-30T14:54:11;1.67;;;1.30;;
21360;SDS011;10839;43.206;23.550;2023-04-30T14:56:37;3.25;;;2.15;;
21360;SDS011;10839;43.206;23.550;2023-04-30T14:59:03;1.50;;;1.17;;
21360;SDS011;10839;43.206;23.550;2023-04-30T15:01:29;2.92;;;1.30;;
21360;SDS011;10839;43.206;23.550;2023-04-30T15:03:55;10.60;;;4.15;;
21360;SDS011;10839;43.206;23.550;2023-04-30T15:06:20;6.95;;;3.50;;
21360;SDS011;10839;43.206;23.550;2023-04-30T15:08:46;5.47;;;3.67;;
21360;SDS011;10839;43.206;23.550;2023-04-30T15:11:12;4.07;;;2.45;;
21360;SDS011;10839;43.206;23.550;2023-04-30T15:13:39;3.88;;;2.15;;
21360;SDS011;10839;43.206;23.550;2023-04-30T15:16:04;3.38;;;2.53;;
21360;SDS011;10839;43.206;23.550;2023-04-30T15:18:31;6.25;;;2.38;;